S. HILARI SACALM (La Selva)





Hora UTC 09:25
Temperatura 8.4 ºC
Sòl 15 cm 9.1 ºC
Humitat 91.6 %
Pressió 1002.9 hPa
Pluja 0.1 mm
Velocitat vent 8.7 km/h
Direcció vent SW
Radiació solar 157.7 W/m²

Dades diàries 2022-12-10



Hora UTC (hivern +1h; estiu +2h)
Temperatura (ºC) Humitat (%) Pressió (hPa) Velocitat vent (km/h) Precipitació (mm) Radiació solar (W/m²)
Hora UTC Aire Sòl 15 cm Humitat Pressió Vel. Dir. Vel. Max Dir. Intent. màx 5 min. Rad. Sol.
00:05 7.4 6.3 95.6 1000.6 0.6 N 0.6 NNE 0.0 0.1
00:10 7.4 6.3 95.6 1000.6 0.3 N 6.1 NNE 0.0 0.1
00:15 7.4 6.3 95.6 1000.6 0.1 N 3.4 N 0.0 0.1
00:20 7.4 6.3 95.7 1000.6 0.1 N 3.4 N 0.0 0.1
00:25 7.4 6.2 95.7 1000.5 0.0 NNE 0.0 N 0.0 0.1
00:30 7.4 6.2 95.8 1000.5 0.5 N 6.1 N 0.0 0.1
00:35 7.3 6.2 95.8 1000.4 0.7 N 6.1 NNE 0.0 0.1
00:40 7.3 6.1 95.8 1000.4 0.7 NNW 6.1 NNW 0.0 0.1
00:45 7.3 6.1 95.9 1000.3 0.7 NNW 6.1 NNW 0.0 0.1
00:50 7.3 6.0 96.0 1000.3 0.4 NNW 6.1 N 0.0 0.1
00:55 7.3 6.0 96.0 1000.3 0.0 NNE 0.0 NNW 0.0 0.1
01:00 7.3 5.9 96.0 1000.3 0.0 NNE 0.0 NNW 0.0 0.1
01:05 7.2 5.6 96.0 1000.3 0.0 NNE 0.0 NNW 0.0 0.1
01:10 7.2 5.5 96.1 1000.3 0.2 NW 3.4 NW 0.0 0.1
01:15 7.3 5.6 96.2 1000.4 0.0 NNE 0.0 NNW 0.0 0.1
01:20 7.3 5.7 96.3 1000.4 0.3 NNW 3.4 NNW 0.0 0.1
01:25 7.3 5.8 96.3 1000.4 0.0 NNE 0.0 NNW 0.0 0.1
01:30 7.3 5.8 96.2 1000.4 1.4 NNW 6.1 NW 0.0 0.1
01:35 7.3 5.9 96.3 1000.4 1.4 NNW 6.1 NNW 0.0 0.1
01:40 7.3 6.0 96.3 1000.5 2.6 NNW 8.8 NNW 0.0 0.1
01:45 7.4 6.3 96.4 1000.5 4.1 NNW 8.8 NNW 0.0 0.1
01:50 7.4 6.4 96.2 1000.5 1.6 NNW 6.1 NNW 0.0 0.1
01:55 7.4 6.4 96.2 1000.5 2.5 NNW 6.1 NNW 0.0 0.1
02:00 7.4 6.4 96.2 1000.6 2.6 NNW 8.8 NNW 0.0 0.1
02:05 7.3 6.4 96.2 1000.6 1.5 NNW 6.1 NNW 0.1 0.1
02:10 7.3 6.3 96.2 1000.6 3.0 N 11.5 N 0.0 0.1
02:15 7.3 6.4 96.3 1000.6 6.4 NNW 11.5 N 0.0 0.1
02:20 7.4 6.5 96.4 1000.6 5.0 NNW 11.5 NNW 0.0 0.1
02:25 7.4 6.6 96.4 1000.7 2.6 N 6.1 NNW 0.0 0.1
02:30 7.4 6.6 96.4 1000.7 2.7 NNW 8.8 NNW 0.0 0.1
02:35 7.5 6.6 96.4 1000.7 0.8 NNW 6.1 NW 0.0 0.1
02:40 7.5 6.6 96.4 1000.8 0.3 ESE 3.4 E 0.0 0.1
02:45 7.5 6.5 96.4 1000.8 1.3 N 8.8 NNW 0.0 0.1
02:50 7.5 6.5 96.3 1000.8 0.7 N 6.1 NNW 0.0 0.1
02:55 7.5 6.5 96.2 1000.7 2.0 NNE 8.8 N 0.0 0.1
03:00 7.5 6.5 96.2 1000.8 0.5 N 6.1 N 0.0 0.1
03:05 7.4 6.4 96.1 1000.8 1.2 NNE 6.1 N 0.0 0.1
03:10 7.4 6.4 96.2 1000.8 3.3 N 6.1 N 0.0 0.1
03:15 7.5 6.4 96.1 1000.8 2.7 NNE 8.8 NNE 0.0 0.1
03:20 7.6 6.4 95.8 1000.8 0.8 NNE 6.1 NNE 0.0 0.1
03:25 7.5 6.3 95.6 1000.7 0.5 N 6.1 N 0.0 0.1
03:30 7.6 6.2 95.5 1000.7 1.1 NNE 6.1 NE 0.0 0.1
03:35 7.5 6.0 95.2 1000.7 0.3 N 3.4 N 0.0 0.1
03:40 7.4 5.9 95.0 1000.7 0.5 N 6.1 N 0.0 0.1
03:45 7.5 5.8 95.1 1000.7 1.3 NNE 6.1 NNE 0.0 0.1
03:50 7.6 6.0 94.9 1000.6 3.5 NE 6.1 ENE 0.0 0.1
03:55 7.5 6.0 94.5 1000.6 1.6 NNE 8.8 NNE 0.0 0.1
04:00 7.5 5.9 94.3 1000.6 3.4 NE 8.8 NE 0.0 0.1
04:05 7.5 5.9 94.2 1000.5 2.6 NE 8.8 NNE 0.0 0.1
04:10 7.5 5.8 94.2 1000.7 1.2 NE 6.1 NNE 0.0 0.1
04:15 7.4 5.7 94.2 1000.8 0.5 NNE 6.1 NNE 0.0 0.1
04:20 7.3 5.5 94.2 1000.8 0.0 NNE 0.0 N 0.0 0.1
04:25 7.3 5.7 94.5 1000.8 0.0 NNE 0.0 NW 0.0 0.1
04:30 7.4 6.0 94.7 1000.8 1.3 S 6.1 S 0.0 0.1
04:35 7.4 6.2 94.8 1000.6 1.4 S 6.1 SSW 0.0 0.1
04:40 7.3 5.9 94.9 1000.6 0.8 S 6.1 S 0.0 0.1
04:45 7.3 5.5 95.0 1000.6 2.1 S 6.1 S 0.0 0.1
04:50 7.2 5.0 95.0 1000.7 0.0 SSW 3.4 SSW 0.0 0.1
04:55 6.9 4.4 94.9 1000.7 0.0 NNE 0.0 SW 0.0 0.1
05:00 6.6 3.6 95.0 1000.7 0.0 NNE 0.0 SW 0.0 0.1
05:05 6.5 3.1 95.2 1000.7 0.0 NNE 0.0 SW 0.0 0.1
05:10 6.3 2.7 95.3 1000.7 0.0 NNE 0.0 WSW 0.0 0.1
05:15 6.3 2.9 95.7 1000.6 0.0 NNE 0.0 WSW 0.0 0.1
05:20 6.2 3.0 95.7 1000.7 0.3 SW 6.1 WSW 0.0 0.1
05:25 6.1 3.4 95.8 1000.7 3.9 WSW 8.8 WSW 0.0 0.1
05:30 6.1 3.9 96.1 1000.6 4.6 WSW 8.8 SW 0.0 0.1
05:35 6.1 4.2 96.2 1000.6 5.2 WSW 8.8 W 0.0 0.1
05:40 6.1 4.3 96.3 1000.6 6.0 WSW 8.8 WSW 0.0 0.1
05:45 6.1 4.4 96.4 1000.7 5.3 WSW 8.8 WSW 0.0 0.1
05:50 6.1 4.5 96.5 1000.7 4.6 WSW 8.8 WSW 0.0 0.1
05:55 6.1 4.5 96.6 1000.7 2.9 SW 6.1 SW 0.0 0.1
06:00 6.1 4.3 96.6 1000.7 2.4 W 8.8 WNW 0.0 0.1
06:05 6.0 4.3 96.6 1000.8 4.4 NW 8.8 NW 0.0 0.1
06:10 6.2 4.4 96.9 1000.9 3.2 WNW 11.5 WNW 0.0 0.1
06:15 6.3 4.5 96.9 1000.9 3.7 WNW 11.5 WNW 0.0 0.1
06:20 6.6 4.8 97.0 1001.0 4.8 WNW 14.2 NW 0.0 0.1
06:25 6.6 4.8 96.6 1001.1 4.4 WNW 11.5 WNW 0.0 0.1
06:30 6.7 4.9 96.5 1001.1 4.8 WNW 11.5 WNW 0.0 0.1
06:35 6.8 5.1 96.3 1001.2 6.4 W 14.2 WNW 0.0 0.1
06:40 6.9 5.2 96.0 1001.3 6.8 WSW 11.5 W 0.0 0.1
06:45 6.9 5.2 96.0 1001.3 6.1 WSW 11.5 WSW 0.0 0.1
06:50 6.9 5.1 95.7 1001.3 4.9 W 8.8 WSW 0.0 0.2
06:55 6.8 5.0 95.5 1001.4 3.2 W 8.8 W 0.0 0.3
07:00 6.9 5.1 95.5 1001.5 5.2 W 14.2 SW 0.0 0.5
07:05 7.0 5.5 95.6 1001.5 6.7 W 11.5 WNW 0.0 0.9
07:10 7.1 5.7 95.5 1001.5 8.8 W 19.6 W 0.0 1.6
07:15 7.2 5.9 95.3 1001.5 9.3 WNW 22.3 NW 0.0 2.7
07:20 7.2 6.0 95.0 1001.5 8.4 W 19.6 WSW 0.0 5.0
07:25 7.3 6.0 94.8 1001.5 11.0 W 19.6 WNW 0.0 7.4
07:30 7.3 6.1 94.6 1001.5 10.0 WNW 19.6 WNW 0.0 7.5
07:35 7.3 6.1 94.5 1001.5 11.5 WNW 25.0 NW 0.0 12.4
07:40 7.3 6.2 94.5 1001.6 12.1 W 27.7 NW 0.0 18.9
07:45 7.3 6.3 94.5 1001.8 12.3 W 27.7 WNW 0.0 22.7
07:50 7.4 6.3 94.4 1001.9 11.9 W 22.3 W 0.0 32.7
07:55 7.5 6.5 94.3 1002.0 13.8 WNW 22.3 WNW 0.0 51.1
08:00 7.5 6.6 94.1 1002.0 14.7 WNW 25.0 WNW 0.0 57.0
08:05 7.5 6.7 94.0 1002.0 14.2 WNW 22.3 WNW 0.0 53.7
08:10 7.6 6.8 93.8 1002.0 7.6 WNW 16.9 W 0.0 67.2
08:15 7.7 7.0 93.7 1002.1 7.1 W 14.2 WNW 0.0 84.7
08:20 7.8 7.1 93.5 1002.2 9.6 W 19.6 W 0.0 80.3
08:25 7.7 7.2 93.4 1002.2 7.2 W 16.9 NW 0.0 85.0
08:30 7.8 7.4 93.4 1002.3 8.8 WNW 14.2 W 0.0 90.8
08:35 7.9 7.5 93.2 1002.3 9.5 WNW 16.9 WNW 0.0 89.9
08:40 7.9 7.6 93.1 1002.4 9.3 WNW 16.9 WNW 0.0 95.9
08:45 7.9 7.7 92.9 1002.5 9.2 WNW 19.6 NW 0.0 88.7
08:50 8.0 7.7 92.7 1002.5 9.9 WNW 22.3 NW 0.0 84.6
08:55 7.9 7.6 92.5 1002.6 8.8 WNW 16.9 W 0.0 76.0
09:00 7.9 7.4 92.4 1002.7 11.1 WNW 22.3 SW 0.0 56.3
09:05 7.9 7.3 92.4 1002.7 9.1 W 22.3 W 0.0 66.1
09:10 8.0 7.9 92.7 1002.8 8.1 WSW 22.3 W 0.0 186.8
09:15 8.2 8.5 92.2 1002.9 9.7 WSW 25.0 NW 0.0 150.4
09:20 8.3 8.8 91.7 1002.9 7.8 WSW 19.6 W 0.0 134.6
09:25 8.4 9.1 91.6 1002.9 8.7 SW 14.2 WSW 0.0 157.7
Màxima 8.4 9.1 97.0 1002.9 14.7 WNW 27.7 WNW 0.1 186.8
Mínima 6.0 2.7 91.6 1000.3
Total 0.1